Buel, New York
Current Conditions -  °F | °C
As of 2:15 AM on Sunday 26 Oct 2014 (Local Time) from KNY0 Reporting Station
Broken Clouds Broken Clouds  
Wind Chill: 41°   Ceiling: 4200
Heat Index: 46°   Visibility: 7mi
Dew Point: 44°   Wind: 10mph
Humidity: 93%   Direction: 220°SW
Pressure: 29.51"   Gusts: NA
Location:  42.8548°N, 74.5942°W
Report Text: KNY0 260615Z AUTO 22009KT 7SM SCT030 BKN042 BKN050 08/07 A2951 RMK AO2 P0001 T00770067
Loading
Personal Weather Stations






























Interactive Weather Map
Tropical Storm Tracking
New forecast layout! Learn more

10-Day Weather Forecast

Advertisements
Track Severe Weather on mobile